KCGZ/CGZ METAR and TAF weather

Enter ICAO airport designator
Station Type Date Time Source
KCGZ METAR 2021/04/18 00:56 UTC NOAA

KCGZ 180056Z AUTO 29005G14KT 10SM CLR 27/M09 A2981 RMK AO2 SLP085 T02721094


Station Type Date Time Source
KCGZ Decoded METAR 2021/04/18 00:56 UTC NOAA

Casa Grande, Casa Grande Municipal Airport, AZ, United States (KCGZ) 32-57N 111-46W
Apr 17, 2021 - 08:56 PM EDT / 2021.04.18 0056 UTC
Wind: from the WNW (290 degrees) at 6 MPH (5 KT) gusting to 16 MPH (14 KT):0
Visibility: 10 mile(s):0
Sky conditions: clear
Temperature: 81.0 F (27.2 C)
Dew Point: 15.1 F (-9.4 C)
Relative Humidity: 8%
Pressure (altimeter): 29.81 in. Hg (1009 hPa)
ob: KCGZ 180056Z AUTO 29005G14KT 10SM CLR 27/M09 A2981 RMK AO2 SLP085 T02721094
cycle: 1

Station Type Date Time Source
KCGZ TAF UTC NOAA

Error!

Example: see airport list